Time;durP1;ratioP1;P1;durP2;ratioP2;P2;SDS_P1;SDS_P2;PMS_P1;PMS_P2;Temp;Humidity;BMP_temperature;BMP_pressure;BME280_temperature;BME280_humidity;BME280_pressure;Samples;Min_cycle;Max_cycle;Signal;HPM_P1;HPM_P2
2021/03/13 00:01:05;;;;;;;7.25;5.05;;;;;;;3.89;56.53;100272.21;1800875;79;21116;-79
2021/03/13 00:03:33;;;;;;;7.50;4.85;;;;;;;3.92;56.50;100268.49;1800847;79;21069;-78
2021/03/13 00:06:00;;;;;;;11.85;5.30;;;;;;;3.95;56.54;100270.87;1800674;79;21089;-77
2021/03/13 00:08:27;;;;;;;;;;;;;;;3.99;56.58;100271.84;1803467;79;20990;-80
2021/03/13 00:10:54;;;;;;;6.80;4.90;;;;;;;4.08;56.54;100275.09;1801554;78;20253;-76
2021/03/13 00:13:21;;;;;;;;;;;;;;;4.09;56.56;100268.02;1802795;79;21157;-79
2021/03/13 00:15:48;;;;;;;7.40;5.08;;;;;;;4.12;56.60;100273.05;1799476;79;20273;-79
2021/03/13 00:18:15;;;;;;;5.95;3.95;;;;;;;4.16;56.64;100271.01;1799077;79;21172;-77
2021/03/13 00:20:44;;;;;;;7.62;4.75;;;;;;;4.21;56.61;100276.30;1798983;79;21171;-78
2021/03/13 00:23:11;;;;;;;8.40;5.50;;;;;;;4.23;56.62;100269.08;1798894;79;21482;-79
2021/03/13 00:25:39;;;;;;;9.70;5.17;;;;;;;4.32;56.61;100268.34;1798939;79;21176;-78
2021/03/13 00:28:06;;;;;;;8.15;4.90;;;;;;;4.42;56.53;100272.91;1799427;79;21141;-79
2021/03/13 00:30:36;;;;;;;8.23;5.55;;;;;;;4.48;56.49;100262.64;1766867;79;21175;-79
2021/03/13 00:33:11;;;;;;;9.88;5.30;;;;;;;4.57;56.41;100260.56;1800246;79;21184;-77
2021/03/13 00:35:40;;;;;;;9.70;5.78;;;;;;;4.66;56.30;100266.09;1767044;79;21066;-80
2021/03/13 00:38:08;;;;;;;8.98;6.55;;;;;;;4.74;56.19;100258.36;1800183;79;21121;-79
2021/03/13 00:40:36;;;;;;;9.83;5.70;;;;;;;4.84;56.07;100260.13;1800221;79;21121;-80
2021/03/13 00:43:05;;;;;;;10.32;6.47;;;;;;;4.92;55.91;100263.48;1800164;79;21208;-79
2021/03/13 00:45:32;;;;;;;11.10;6.42;;;;;;;4.94;55.85;100246.93;1766072;79;21057;-76
2021/03/13 00:48:00;;;;;;;16.12;8.60;;;;;;;4.97;55.82;100257.30;1766775;79;21073;-78
2021/03/13 00:50:30;;;;;;;31.10;13.13;;;;;;;5.04;55.84;100257.63;1800268;79;21061;-76
2021/03/13 00:52:58;;;;;;;42.40;18.95;;;;;;;5.16;55.86;100261.08;1800204;79;21128;-78
2021/03/13 00:55:26;;;;;;;52.78;22.40;;;;;;;5.28;55.83;100264.05;1800160;79;21135;-77
2021/03/13 00:57:54;;;;;;;53.10;22.65;;;;;;;5.42;55.73;100258.41;1800022;79;21588;-79
2021/03/13 01:00:25;;;;;;;48.08;21.00;;;;;;;5.54;55.55;100262.69;1795279;79;21606;-78
2021/03/13 01:02:53;;;;;;;52.45;21.37;;;;;;;5.73;55.21;100250.48;1800238;79;21065;-77
2021/03/13 01:05:22;;;;;;;51.00;20.68;;;;;;;5.85;54.90;100253.39;1800341;79;21079;-80
2021/03/13 01:07:49;;;;;;;51.88;22.95;;;;;;;5.91;54.75;100249.38;1800193;79;21077;-77
2021/03/13 01:10:35;;;;;;;47.62;18.77;;;;;;;6.08;54.38;100255.41;1800215;79;21124;-81
2021/03/13 01:13:04;;;;;;;57.43;24.27;;;;;;;6.04;54.43;100257.97;1800235;79;21176;-80
2021/03/13 01:15:33;;;;;;;59.27;21.68;;;;;;;6.04;54.32;100257.52;1767244;79;21358;-78
2021/03/13 01:18:01;;;;;;;67.60;26.30;;;;;;;6.09;54.35;100260.61;1800260;79;21508;-78
2021/03/13 01:20:30;;;;;;;69.80;28.65;;;;;;;6.21;54.11;100260.48;1800158;79;21519;-78
2021/03/13 01:22:57;;;;;;;78.80;30.50;;;;;;;6.19;54.10;100253.15;1767052;79;21113;-78
2021/03/13 01:25:24;;;;;;;69.05;29.07;;;;;;;6.19;54.17;100249.16;1800329;79;21571;-77
2021/03/13 01:27:51;;;;;;;58.90;27.17;;;;;;;6.26;54.16;100254.27;1802572;79;20931;-75
2021/03/13 01:30:21;;;;;;;61.28;25.80;;;;;;;6.54;53.61;100246.87;1803180;79;21069;-77
2021/03/13 01:32:50;;;;;;;54.90;25.43;;;;;;;6.43;53.91;100259.44;1765584;79;21196;-79
2021/03/13 01:35:18;;;;;;;43.95;18.62;;;;;;;6.45;53.92;100266.33;1801191;79;21133;-79
2021/03/13 01:37:45;;;;;;;46.53;19.90;;;;;;;6.48;53.92;100272.68;1825673;78;21196;-80
2021/03/13 01:40:15;;;;;;;46.65;23.12;;;;;;;6.53;53.92;100280.25;1800165;79;21640;-78
2021/03/13 01:42:45;;;;;;;53.42;23.40;;;;;;;6.58;53.86;100284.18;1766066;79;21113;-78
2021/03/13 01:45:15;;;;;;;56.88;23.67;;;;;;;6.62;53.76;100284.75;1798666;79;21168;-79
2021/03/13 01:47:43;;;;;;;45.95;20.12;;;;;;;6.65;53.73;100283.66;1800041;79;21073;-81
2021/03/13 01:50:13;;;;;;;34.67;15.65;;;;;;;6.68;53.67;100282.06;1800233;79;21081;-79
2021/03/13 01:52:42;;;;;;;24.00;12.37;;;;;;;6.69;53.58;100290.39;1800125;79;21064;-77
2021/03/13 01:55:11;;;;;;;20.90;12.05;;;;;;;6.67;53.60;100287.00;1800160;79;21092;-77
2021/03/13 01:57:39;;;;;;;19.77;11.22;;;;;;;6.69;53.59;100291.72;1800079;79;21084;-77
2021/03/13 02:00:13;;;;;;;21.37;11.97;;;;;;;6.73;53.62;100297.13;1800087;79;21136;-77
2021/03/13 02:02:45;;;;;;;;;;;;;;;6.79;53.63;100304.05;1802049;78;21158;-78
2021/03/13 02:05:31;;;;;;;19.23;11.63;;;;;;;6.84;53.55;100299.65;1800071;78;20265;-77
2021/03/13 02:08:39;;;;;;;19.62;11.83;;;;;;;6.88;53.57;100306.38;1799965;79;21085;-74
2021/03/13 02:11:37;;;;;;;19.30;10.93;;;;;;;6.93;53.47;100309.47;1731107;82;21254;-78
2021/03/13 02:14:16;;;;;;;19.87;10.50;;;;;;;6.99;53.39;100306.73;1731273;82;21177;-79
2021/03/13 02:17:28;;;;;;;19.77;11.60;;;;;;;7.05;53.32;100313.70;1847832;76;22784;-79
2021/03/13 02:20:21;;;;;;;18.60;11.05;;;;;;;7.00;53.26;100313.27;1818281;79;20924;-75
2021/03/13 02:22:51;;;;;;;18.17;11.55;;;;;;;7.02;53.28;100311.79;1817719;79;21559;-80
2021/03/13 02:26:02;;;;;;;20.85;12.85;;;;;;;7.04;53.25;100308.02;1818290;79;21473;-78
2021/03/13 02:28:55;;;;;;;26.20;13.22;;;;;;;7.09;53.17;100320.43;1816908;79;21157;-80
2021/03/13 02:31:25;;;;;;;23.55;13.13;;;;;;;7.14;53.08;100324.01;1792703;79;21077;-76
2021/03/13 02:33:53;;;;;;;21.05;13.13;;;;;;;7.16;53.03;100320.70;1787195;79;21066;-76
2021/03/13 02:36:22;;;;;;;27.07;13.43;;;;;;;7.17;52.98;100322.88;1816374;79;21082;-76
2021/03/13 02:39:05;;;;;;;21.80;13.08;;;;;;;7.16;52.91;100326.03;1786375;79;21146;-77
2021/03/13 02:41:41;;;;;;;21.62;13.55;;;;;;;7.18;52.91;100328.57;1818065;79;21579;-78
2021/03/13 02:44:10;;;;;;;23.67;13.70;;;;;;;7.19;52.81;100317.77;1818194;79;21121;-78
2021/03/13 02:46:46;;;;;;;23.05;13.25;;;;;;;7.21;52.83;100320.28;1817782;79;21556;-75
2021/03/13 02:49:14;;;;;;;17.55;11.65;;;;;;;7.21;52.84;100315.79;1818172;79;21632;-77
2021/03/13 02:51:42;;;;;;;21.40;11.83;;;;;;;7.23;52.76;100324.50;1818170;79;21042;-76
2021/03/13 02:54:10;;;;;;;17.50;11.08;;;;;;;7.23;52.78;100331.66;1818185;79;21125;-78
2021/03/13 02:56:41;;;;;;;17.73;11.78;;;;;;;7.25;52.78;100337.67;1786539;79;21172;-81
2021/03/13 02:59:10;;;;;;;21.45;12.40;;;;;;;7.26;52.77;100330.02;1818219;79;21130;-76
2021/03/13 03:01:38;;;;;;;20.12;12.18;;;;;;;7.25;52.71;100332.34;1818229;78;21145;-78
2021/03/13 03:04:07;;;;;;;24.90;12.58;;;;;;;7.26;52.77;100335.34;1786950;79;21082;-78
2021/03/13 03:06:39;;;;;;;27.20;14.05;;;;;;;7.30;52.80;100336.75;1818165;79;21065;-79
2021/03/13 03:09:07;;;;;;;30.40;15.45;;;;;;;7.34;52.76;100338.16;1818220;79;21046;-80
2021/03/13 03:11:36;;;;;;;44.13;21.00;;;;;;;7.36;52.73;100338.87;1817656;79;21587;-77
2021/03/13 03:14:03;;;;;;;38.60;18.75;;;;;;;7.38;52.72;100340.90;1818160;79;21069;-76
2021/03/13 03:16:31;;;;;;;42.73;20.35;;;;;;;7.42;52.72;100339.64;1810829;78;21142;-80
2021/03/13 03:19:00;;;;;;;40.90;19.80;;;;;;;7.41;52.70;100342.45;1802441;78;21130;-80
2021/03/13 03:21:30;;;;;;;46.45;21.60;;;;;;;7.39;52.73;100347.91;1736887;79;21127;-76
2021/03/13 03:23:58;;;;;;;60.45;27.87;;;;;;;7.40;52.82;100357.58;1806386;79;21617;-75
2021/03/13 03:26:26;;;;;;;69.17;31.10;;;;;;;7.44;52.79;100356.31;1805248;79;21161;-78
2021/03/13 03:28:55;;;;;;;69.30;32.30;;;;;;;7.47;52.79;100359.20;1804880;79;21161;-78
2021/03/13 03:31:23;;;;;;;75.32;31.95;;;;;;;7.48;52.78;100354.22;1805085;79;21130;-77
2021/03/13 03:33:50;;;;;;;69.07;30.05;;;;;;;7.51;52.74;100352.12;1804900;79;21126;-77
2021/03/13 03:36:19;;;;;;;65.80;30.40;;;;;;;7.52;52.67;100348.95;1805145;79;21193;-79
2021/03/13 03:38:48;;;;;;;74.85;30.43;;;;;;;7.49;52.72;100347.41;1804749;79;21163;-75
2021/03/13 03:41:17;;;;;;;61.42;26.35;;;;;;;7.47;52.76;100344.55;1753506;79;21070;-77
2021/03/13 03:44:00;;;;;;;57.78;24.80;;;;;;;7.46;52.81;100350.38;1806535;79;21063;-76
2021/03/13 03:46:28;;;;;;;63.80;27.52;;;;;;;7.44;52.89;100344.32;1782612;79;21125;-77
2021/03/13 03:48:56;;;;;;;65.08;31.45;;;;;;;7.47;52.93;100350.72;1805740;79;21050;-76
2021/03/13 03:51:26;;;;;;;72.78;30.90;;;;;;;7.51;52.90;100344.12;1783181;79;21142;-77
2021/03/13 03:53:56;;;;;;;64.22;29.37;;;;;;;7.55;52.89;100350.86;1742121;79;21070;-76
2021/03/13 03:56:24;;;;;;;49.60;23.05;;;;;;;7.59;52.85;100352.26;1806469;79;21501;-78
2021/03/13 03:58:52;;;;;;;;;;;;;;;7.61;52.84;100344.95;1761459;79;21123;-76
2021/03/13 04:01:22;;;;;;;27.50;14.65;;;;;;;7.63;52.79;100344.33;1806726;79;20456;-77
2021/03/13 04:03:53;;;;;;;31.15;16.82;;;;;;;7.61;52.80;100347.62;1783543;79;21109;-77
2021/03/13 04:06:20;;;;;;;23.75;14.50;;;;;;;7.61;52.76;100346.28;1806425;79;21146;-78
2021/03/13 04:08:51;;;;;;;23.77;14.85;;;;;;;7.62;52.80;100357.28;1805910;79;21157;-78
2021/03/13 04:11:21;;;;;;;22.17;14.23;;;;;;;7.65;52.76;100358.00;1805047;79;21177;-77
2021/03/13 04:13:50;;;;;;;24.90;15.48;;;;;;;7.68;52.72;100351.91;1781988;79;21189;-78
2021/03/13 04:16:17;;;;;;;22.13;15.05;;;;;;;7.70;52.70;100351.75;1804960;79;21165;-78
2021/03/13 04:18:45;;;;;;;26.50;16.00;;;;;;;7.71;52.64;100346.77;1805017;79;21173;-78
2021/03/13 04:21:12;;;;;;;26.77;15.83;;;;;;;7.73;52.65;100346.14;1804811;79;21149;-77
2021/03/13 04:23:44;;;;;;;26.10;15.72;;;;;;;7.74;52.59;100351.82;1804865;79;21230;-83
2021/03/13 04:26:11;;;;;;;36.60;20.82;;;;;;;7.73;52.59;100352.81;1806345;78;21109;-83
2021/03/13 04:28:38;;;;;;;25.75;16.10;;;;;;;7.71;52.61;100355.59;1806568;79;21603;-82
2021/03/13 04:31:05;;;;;;;30.75;17.05;;;;;;;7.74;52.66;100365.15;1805791;79;21565;-78
2021/03/13 04:33:33;;;;;;;29.80;17.37;;;;;;;7.76;52.64;100365.83;1804549;79;21157;-80
2021/03/13 04:36:03;;;;;;;27.30;16.35;;;;;;;7.79;52.55;100360.23;1757880;79;21161;-79
2021/03/13 04:38:30;;;;;;;21.80;14.45;;;;;;;7.77;52.59;100363.55;1807325;79;21087;-74
2021/03/13 04:40:57;;;;;;;22.73;14.90;;;;;;;7.77;52.60;100364.88;1808332;79;21063;-74
2021/03/13 04:43:26;;;;;;;25.82;15.88;;;;;;;7.78;52.55;100358.55;1785851;79;21086;-76
2021/03/13 04:45:58;;;;;;;24.98;15.53;;;;;;;7.78;52.59;100360.72;1785559;79;21031;-77
2021/03/13 04:48:31;;;;;;;20.97;15.00;;;;;;;7.79;52.49;100365.56;1774673;79;21181;-81
2021/03/13 04:51:00;;;;;;;27.95;16.35;;;;;;;7.79;52.47;100358.89;1773240;80;21490;-80
2021/03/13 04:53:28;;;;;;;28.83;17.65;;;;;;;7.81;52.53;100358.25;1774435;80;21477;-80
2021/03/13 04:55:56;;;;;;;28.02;18.00;;;;;;;7.84;52.49;100363.30;1774286;80;21506;-79
2021/03/13 04:58:24;;;;;;;33.08;20.45;;;;;;;7.85;52.48;100358.31;1774760;80;21518;-79
2021/03/13 05:00:54;;;;;;;32.23;18.92;;;;;;;7.86;52.43;100368.02;1774918;80;21601;-79
2021/03/13 05:03:23;;;;;;;28.23;19.12;;;;;;;7.87;52.46;100368.36;1771396;80;21070;-79
2021/03/13 05:05:50;;;;;;;33.10;19.87;;;;;;;7.86;52.50;100380.86;1774745;80;21110;-77
2021/03/13 05:08:19;;;;;;;32.55;20.00;;;;;;;7.85;52.48;100376.48;1774476;80;21102;-79
2021/03/13 05:10:46;;;;;;;31.15;17.90;;;;;;;7.87;52.45;100387.03;1774392;80;21063;-78
2021/03/13 05:13:13;;;;;;;;;;;;;;;7.88;52.43;100384.70;1755845;80;21129;-76
2021/03/13 05:15:40;;;;;;;29.35;18.75;;;;;;;7.90;52.38;100390.72;1775556;79;20489;-75
2021/03/13 05:18:07;;;;;;;31.55;20.30;;;;;;;7.91;52.49;100396.92;1753423;80;21201;-79
2021/03/13 05:20:36;;;;;;;35.92;22.50;;;;;;;7.92;52.51;100391.44;1774658;80;21485;-78
2021/03/13 05:23:03;;;;;;;33.30;21.52;;;;;;;7.93;52.43;100379.78;1774636;80;21470;-79
2021/03/13 05:25:30;;;;;;;36.33;21.85;;;;;;;7.95;52.39;100392.96;1774703;80;21565;-77
2021/03/13 05:27:57;;;;;;;36.90;24.00;;;;;;;7.91;52.53;100387.09;1774742;80;21485;-80
2021/03/13 05:30:25;;;;;;;42.88;26.23;;;;;;;7.96;52.36;100383.50;1774600;80;21090;-80
2021/03/13 05:32:52;;;;;;;35.13;22.13;;;;;;;7.97;52.33;100395.02;1773448;80;21181;-78
2021/03/13 05:35:20;;;;;;;;;;;;;;;7.97;52.37;100389.18;1775829;80;21185;-78
2021/03/13 05:37:48;;;;;;;40.65;21.95;;;;;;;7.99;52.36;100407.20;1772859;80;20266;-77
2021/03/13 05:40:15;;;;;;;39.73;23.57;;;;;;;7.99;52.41;100404.53;1773108;80;21679;-75
2021/03/13 05:42:43;;;;;;;32.48;21.42;;;;;;;8.03;52.38;100415.27;1773661;80;21197;-76
2021/03/13 05:45:11;;;;;;;34.25;21.33;;;;;;;8.04;52.37;100420.11;1792935;79;21165;-78
2021/03/13 05:47:39;;;;;;;33.23;20.82;;;;;;;8.04;52.34;100422.31;1751246;80;21193;-75
2021/03/13 05:50:13;;;;;;;34.25;21.80;;;;;;;8.04;52.33;100436.98;1772599;80;21656;-76
2021/03/13 05:52:40;;;;;;;35.88;22.17;;;;;;;8.04;52.31;100439.66;1772845;80;21674;-80
2021/03/13 05:55:09;;;;;;;40.85;22.75;;;;;;;8.06;52.26;100443.00;1764425;79;21676;-79
2021/03/13 05:57:36;;;;;;;41.77;21.70;;;;;;;8.07;52.23;100448.69;1772587;80;21757;-77
2021/03/13 06:00:05;;;;;;;31.62;19.12;;;;;;;7.95;52.44;100452.51;1772349;80;21624;-79
2021/03/13 06:02:39;;;;;;;29.95;18.30;;;;;;;8.06;52.16;100448.34;1774478;79;21198;-79
2021/03/13 06:05:08;;;;;;;31.07;20.25;;;;;;;8.04;52.21;100458.33;1772421;80;21709;-76
2021/03/13 06:07:36;;;;;;;29.95;20.25;;;;;;;8.06;52.20;100454.17;1773473;80;20989;-80
2021/03/13 06:10:06;;;;;;;30.02;19.55;;;;;;;8.06;52.26;100457.68;1750479;80;21717;-78
2021/03/13 06:12:33;;;;;;;55.10;26.80;;;;;;;8.07;52.33;100458.02;1775205;79;21193;-77
2021/03/13 06:14:59;;;;;;;;;;;;;;;8.10;52.32;100461.75;1771540;79;21182;-77
2021/03/13 06:17:27;;;;;;;71.50;30.70;;;;;;;8.12;52.28;100465.10;1785970;79;20292;-78
2021/03/13 06:19:58;;;;;;;85.92;33.63;;;;;;;8.10;52.25;100476.92;1745182;81;21194;-78
2021/03/13 06:22:41;;;;;;;87.05;36.17;;;;;;;8.06;52.29;100475.02;1772852;80;21212;-78
2021/03/13 06:25:23;;;;;;;77.05;31.45;;;;;;;8.05;52.38;100477.34;1773925;79;21169;-81
2021/03/13 06:28:07;;;;;;;65.60;30.68;;;;;;;8.01;52.45;100479.10;1800804;79;21588;-80
2021/03/13 06:30:50;;;;;;;34.58;19.90;;;;;;;8.07;52.54;100483.86;1852765;77;22734;-82
2021/03/13 06:33:28;;;;;;;32.17;19.60;;;;;;;8.07;52.52;100486.53;1858370;77;21157;-79
2021/03/13 06:36:01;;;;;;;31.77;19.62;;;;;;;8.08;52.49;100482.41;1857312;77;21173;-77
2021/03/13 06:38:29;;;;;;;29.25;17.67;;;;;;;8.01;52.63;100483.94;1845899;77;21166;-80
2021/03/13 06:41:00;;;;;;;29.05;17.60;;;;;;;7.97;52.77;100487.87;1845460;77;21192;-78
2021/03/13 06:43:30;;;;;;;26.85;18.25;;;;;;;7.99;52.80;100484.55;1821721;77;21142;-77
2021/03/13 06:46:11;;;;;;;27.70;18.48;;;;;;;8.03;52.76;100483.79;1806492;78;21200;-76
2021/03/13 06:48:54;;;;;;;29.18;19.12;;;;;;;8.03;52.76;100485.96;1809140;78;21212;-78
2021/03/13 06:51:32;;;;;;;30.95;19.73;;;;;;;8.09;52.77;100477.41;1860336;76;21171;-76
2021/03/13 06:54:10;;;;;;;36.98;21.70;;;;;;;8.14;52.75;100476.98;1799953;78;21222;-78
2021/03/13 06:56:44;;;;;;;32.73;19.85;;;;;;;8.19;52.74;100471.23;1826656;78;21158;-76
2021/03/13 06:59:31;;;;;;;32.08;20.27;;;;;;;8.25;52.66;100476.81;1820624;78;21833;-79
2021/03/13 07:02:09;;;;;;;33.23;19.42;;;;;;;8.31;52.55;100482.06;1828525;78;21462;-78
2021/03/13 07:04:40;;;;;;;37.20;22.98;;;;;;;8.34;52.48;100476.45;1816267;78;21191;-77
2021/03/13 07:07:08;;;;;;;32.17;20.60;;;;;;;8.40;52.51;100489.25;1830559;78;21132;-77
2021/03/13 07:09:52;;;;;;;35.90;22.42;;;;;;;8.42;52.50;100489.97;1797609;78;21671;-79
2021/03/13 07:12:35;;;;;;;31.82;20.15;;;;;;;8.46;52.50;100494.53;1807561;78;21628;-77
2021/03/13 07:15:25;;;;;;;31.42;20.08;;;;;;;8.51;52.54;100491.77;1822991;78;21180;-78
2021/03/13 07:17:55;;;;;;;30.23;19.75;;;;;;;8.59;52.51;100500.41;1810855;78;21182;-78
2021/03/13 07:20:31;;;;;;;35.10;21.02;;;;;;;8.68;52.37;100495.53;1819005;78;21171;-82
2021/03/13 07:23:01;;;;;;;30.82;21.37;;;;;;;8.71;52.33;100499.72;1825957;78;21166;-80
2021/03/13 07:25:29;;;;;;;29.55;19.77;;;;;;;8.77;52.26;100496.00;1826272;78;21117;-79
2021/03/13 07:28:02;;;;;;;38.95;23.07;;;;;;;8.96;51.88;100499.59;1806469;78;21790;-81
2021/03/13 07:30:31;;;;;;;31.85;20.48;;;;;;;9.08;51.76;100496.58;1820250;77;21208;-79
2021/03/13 07:33:04;;;;;;;30.25;21.60;;;;;;;9.17;51.65;100504.67;1820594;78;21180;-77
2021/03/13 07:35:39;;;;;;;31.87;21.37;;;;;;;9.25;51.55;100506.95;1803193;78;21655;-78
2021/03/13 07:38:10;;;;;;;35.03;23.45;;;;;;;9.35;51.27;100509.58;1821889;78;21204;-77
2021/03/13 07:40:40;;;;;;;41.80;25.05;;;;;;;9.45;51.14;100498.83;1807258;78;21188;-79
2021/03/13 07:43:09;;;;;;;38.40;25.52;;;;;;;9.56;51.03;100500.80;1793178;78;21178;-77
2021/03/13 07:45:37;;;;;;;36.00;24.12;;;;;;;9.69;50.91;100501.78;1797283;78;22091;-77
2021/03/13 07:48:09;;;;;;;41.40;25.52;;;;;;;9.81;50.87;100497.91;1828007;78;21204;-76
2021/03/13 07:50:40;;;;;;;41.35;25.88;;;;;;;9.93;50.69;100504.34;1819825;78;21142;-80
2021/03/13 07:53:08;;;;;;;39.63;24.75;;;;;;;10.04;50.39;100502.30;1776400;80;21247;-78
2021/03/13 07:55:35;;;;;;;36.53;25.12;;;;;;;10.13;50.33;100506.73;1795005;78;21165;-74
2021/03/13 07:58:04;;;;;;;41.88;26.20;;;;;;;10.25;50.08;100506.50;1818376;78;21169;-76
2021/03/13 08:00:45;;;;;;;37.73;25.17;;;;;;;10.35;49.93;100506.75;1804210;77;21157;-75
2021/03/13 08:03:37;;;;;;;32.05;22.22;;;;;;;10.46;49.67;100513.71;1819992;77;21181;-77
2021/03/13 08:06:11;;;;;;;39.35;25.27;;;;;;;10.54;49.34;100512.44;1832256;76;21192;-77
2021/03/13 08:08:52;;;;;;;36.40;24.45;;;;;;;10.57;49.06;100510.77;1806042;78;21211;-75
2021/03/13 08:11:21;;;;;;;32.80;22.75;;;;;;;10.61;49.01;100517.48;1837405;76;21204;-76
2021/03/13 08:13:54;;;;;;;36.85;23.85;;;;;;;10.64;48.83;100518.52;1799567;77;21682;-77
2021/03/13 08:16:37;;;;;;;35.40;23.65;;;;;;;10.66;48.62;100516.52;1832114;77;21189;-77
2021/03/13 08:19:33;;;;;;;34.27;23.35;;;;;;;10.74;48.78;100512.22;1835415;76;21653;-77
2021/03/13 08:22:14;;;;;;;33.73;22.52;;;;;;;10.82;48.81;100507.76;1806403;78;21167;-75
2021/03/13 08:24:53;;;;;;;33.53;22.73;;;;;;;10.90;48.78;100505.60;1823088;78;21651;-78
2021/03/13 08:27:41;;;;;;;32.10;22.02;;;;;;;10.88;48.91;100508.95;1815691;78;21259;-79
2021/03/13 08:30:25;;;;;;;36.33;21.82;;;;;;;10.93;48.93;100509.31;1819742;78;21190;-80
2021/03/13 08:33:07;;;;;;;35.50;23.62;;;;;;;11.04;48.75;100511.73;1822395;78;21207;-78
2021/03/13 08:35:46;;;;;;;33.35;23.35;;;;;;;11.14;48.66;100509.77;1827568;78;21286;-76
2021/03/13 08:38:16;;;;;;;;;;;;;;;11.22;48.46;100510.78;1820690;78;21255;-79
2021/03/13 08:40:51;;;;;;;36.42;22.30;;;;;;;11.32;48.49;100509.67;1817317;78;20568;-77
2021/03/13 08:43:37;;;;;;;37.00;23.52;;;;;;;11.41;48.29;100509.20;1785947;78;21180;-79
2021/03/13 08:46:07;;;;;;;68.07;34.27;;;;;;;11.51;47.93;100509.06;1825407;78;21207;-78
2021/03/13 08:48:58;;;;;;;112.03;50.00;;;;;;;11.58;47.80;100512.76;1816405;78;21192;-80
2021/03/13 08:51:27;;;;;;;140.40;54.10;;;;;;;11.64;47.66;100504.08;1822932;78;21207;-78
2021/03/13 08:53:56;;;;;;;86.05;42.43;;;;;;;11.64;47.18;100511.63;1817860;78;21220;-75
2021/03/13 08:56:42;;;;;;;132.87;58.13;;;;;;;11.64;47.51;100511.63;1807160;78;21425;-78
2021/03/13 08:59:12;;;;;;;122.53;54.60;;;;;;;11.65;47.24;100509.78;1804873;78;21161;-77
2021/03/13 09:01:45;;;;;;;123.15;56.83;;;;;;;11.65;47.62;100507.09;1806986;78;21200;-78
2021/03/13 09:04:16;;;;;;;98.87;48.10;;;;;;;11.71;47.93;100513.13;1812575;78;21592;-79
2021/03/13 09:06:45;;;;;;;55.38;32.80;;;;;;;11.77;47.48;100508.47;1787941;78;21211;-77
2021/03/13 09:09:16;;;;;;;49.42;27.90;;;;;;;11.82;47.82;100507.98;1840303;76;21194;-77
2021/03/13 09:11:45;;;;;;;38.38;24.30;;;;;;;11.88;47.77;100515.39;1791070;79;21713;-78
2021/03/13 09:14:14;;;;;;;38.25;23.27;;;;;;;11.93;47.83;100511.70;1820872;78;21223;-78
2021/03/13 09:16:41;;;;;;;32.58;21.23;;;;;;;11.98;48.06;100512.05;1829860;78;21188;-77
2021/03/13 09:19:14;;;;;;;34.30;22.13;;;;;;;11.99;47.30;100509.72;1817649;78;21743;-83
2021/03/13 09:21:52;;;;;;;30.57;21.80;;;;;;;11.92;47.12;100513.55;1813912;78;21202;-78
2021/03/13 09:24:25;;;;;;;35.85;22.95;;;;;;;11.84;47.15;100512.19;1822223;77;21192;-76
2021/03/13 09:27:00;;;;;;;32.05;22.05;;;;;;;11.78;47.08;100516.02;1782168;78;21401;-77
2021/03/13 09:29:40;;;;;;;35.63;24.30;;;;;;;11.69;47.02;100515.99;1813550;77;21195;-79
2021/03/13 09:32:11;;;;;;;40.25;26.97;;;;;;;11.57;47.24;100521.31;1790420;77;21209;-77
2021/03/13 09:34:42;;;;;;;36.58;23.80;;;;;;;11.51;47.72;100520.63;1812908;78;21163;-77
2021/03/13 09:37:17;;;;;;;34.48;22.98;;;;;;;11.52;48.26;100516.11;1803488;78;21200;-77
2021/03/13 09:39:48;;;;;;;30.05;22.73;;;;;;;11.59;48.59;100519.33;1792710;78;21239;-78
2021/03/13 09:42:22;;;;;;;33.35;22.50;;;;;;;11.68;48.72;100519.69;1803021;77;22256;-80
2021/03/13 09:44:55;;;;;;;33.70;24.00;;;;;;;11.78;48.76;100520.88;1804813;77;21196;-77
2021/03/13 09:47:36;;;;;;;31.87;21.45;;;;;;;11.89;48.82;100522.43;1795572;77;21181;-80
2021/03/13 09:50:32;;;;;;;27.10;19.35;;;;;;;11.98;48.76;100527.31;1778344;78;21171;-78
2021/03/13 09:53:00;;;;;;;27.27;19.45;;;;;;;12.03;48.14;100521.77;1804176;78;21211;-82
2021/03/13 09:55:30;;;;;;;25.82;18.62;;;;;;;12.03;47.80;100524.45;1775864;78;21191;-77
2021/03/13 09:58:02;;;;;;;27.50;19.00;;;;;;;11.97;46.94;100519.77;1809909;78;21675;-77
2021/03/13 10:00:41;;;;;;;29.20;19.87;;;;;;;11.78;47.13;100516.02;1808167;77;21206;-78
2021/03/13 10:03:15;;;;;;;32.93;19.85;;;;;;;11.67;47.26;100519.36;1800586;77;21179;-78
2021/03/13 10:05:45;;;;;;;32.90;20.90;;;;;;;11.64;47.58;100510.28;1806477;77;21153;-79
2021/03/13 10:08:13;;;;;;;24.92;17.82;;;;;;;11.64;47.54;100515.64;1766468;78;21206;-76
2021/03/13 10:10:47;;;;;;;27.60;18.15;;;;;;;11.61;47.31;100513.28;1816887;78;21232;-78
2021/03/13 10:13:16;;;;;;;27.42;18.80;;;;;;;11.56;47.32;100511.59;1816172;78;21065;-76
2021/03/13 10:15:45;;;;;;;34.65;21.80;;;;;;;11.53;47.39;100506.55;1806593;78;21692;-76
2021/03/13 10:18:17;;;;;;;56.40;29.82;;;;;;;11.58;48.07;100512.76;1821873;77;21246;-78
2021/03/13 10:20:53;;;;;;;67.20;32.05;;;;;;;11.61;47.98;100515.97;1827558;77;21319;-83
2021/03/13 10:23:30;;;;;;;97.75;43.25;;;;;;;11.65;47.90;100520.51;1820203;78;21180;-76
2021/03/13 10:26:05;;;;;;;121.05;49.30;;;;;;;11.64;47.72;100514.30;1788599;80;21191;-79
2021/03/13 10:28:36;;;;;;;67.60;31.93;;;;;;;11.63;47.73;100521.19;1796497;77;21110;-79
2021/03/13 10:31:19;;;;;;;54.60;29.23;;;;;;;11.61;47.81;100524.02;1808505;79;21216;-78
2021/03/13 10:33:50;;;;;;;52.55;29.02;;;;;;;11.63;47.87;100522.02;1801580;78;21581;-78
2021/03/13 10:36:19;;;;;;;178.78;71.95;;;;;;;11.73;48.20;100522.38;1809921;78;21188;-77
2021/03/13 10:38:56;;;;;;;;;;;;;;;11.80;47.82;100524.22;1824974;78;21177;-80
2021/03/13 10:41:24;;;;;;;118.50;53.80;;;;;;;11.85;47.79;100515.70;1818380;78;20283;-80
2021/03/13 10:43:52;;;;;;;106.55;47.65;;;;;;;11.91;48.00;100513.22;1820640;78;21225;-79
2021/03/13 10:46:23;;;;;;;125.55;54.53;;;;;;;11.98;47.49;100513.38;1827321;78;21267;-79
2021/03/13 10:49:00;;;;;;;91.97;42.08;;;;;;;12.00;47.63;100512.73;1818449;78;21676;-79
2021/03/13 10:51:42;;;;;;;45.30;25.27;;;;;;;12.04;47.62;100515.94;1827583;78;21657;-83
2021/03/13 10:54:24;;;;;;;35.48;20.30;;;;;;;12.10;47.49;100503.17;1826263;78;21194;-77
2021/03/13 10:56:52;;;;;;;52.25;28.62;;;;;;;12.17;47.29;100510.41;1826116;78;21685;-77
2021/03/13 10:59:35;;;;;;;47.13;25.02;;;;;;;12.23;47.06;100503.52;1825433;78;21170;-82
2021/03/13 11:02:03;;;;;;;67.15;31.75;;;;;;;12.27;47.09;100502.69;1824684;78;21670;-78
2021/03/13 11:04:30;;;;;;;90.17;40.60;;;;;;;12.27;46.59;100512.08;1870274;76;21662;-78
2021/03/13 11:06:59;;;;;;;72.72;34.98;;;;;;;12.11;46.14;100510.22;1816579;77;21182;-75
2021/03/13 11:09:30;;;;;;;87.30;41.80;;;;;;;11.94;46.40;100518.74;1805961;79;21176;-76
2021/03/13 11:11:58;;;;;;;86.30;40.28;;;;;;;11.82;46.94;100524.08;1782376;80;21194;-79
2021/03/13 11:14:26;;;;;;;74.55;37.00;;;;;;;11.74;47.33;100518.18;1812956;78;21104;-75
2021/03/13 11:16:54;;;;;;;58.08;31.33;;;;;;;11.71;47.19;100514.98;1805752;78;21170;-77
2021/03/13 11:19:25;;;;;;;44.08;25.62;;;;;;;11.66;47.45;100511.45;1809128;78;21179;-78
2021/03/13 11:21:53;;;;;;;82.02;39.42;;;;;;;11.63;47.52;100509.95;1813307;78;21148;-78
2021/03/13 11:24:23;;;;;;;144.55;57.17;;;;;;;11.65;47.61;100509.78;1792830;79;21123;-81
2021/03/13 11:26:52;;;;;;;118.55;50.73;;;;;;;11.63;47.27;100509.11;1802941;79;21087;-78
2021/03/13 11:29:20;;;;;;;112.45;48.23;;;;;;;11.58;47.53;100507.39;1748200;79;21214;-80
2021/03/13 11:31:50;;;;;;;100.22;41.55;;;;;;;11.57;47.69;100502.53;1802057;77;21198;-77
2021/03/13 11:34:19;;;;;;;106.58;42.83;;;;;;;11.61;47.57;100503.05;1801461;79;21230;-77
2021/03/13 11:36:46;;;;;;;97.92;40.90;;;;;;;11.60;47.81;100494.17;1809300;78;21645;-78
2021/03/13 11:39:14;;;;;;;120.87;51.95;;;;;;;11.66;47.79;100500.72;1807300;78;21158;-79